Time;durP1;ratioP1;P1;durP2;ratioP2;P2;SDS_P1;SDS_P2;PMS_P1;PMS_P2;Temp;Humidity;BMP_temperature;BMP_pressure;BME280_temperature;BME280_humidity;BME280_pressure;Samples;Min_cycle;Max_cycle;Signal;HPM_P1;HPM_P2
2022/08/16 00:00:16;;;;;;;;;;;;;;;21.31;100.00;99224.91;3058484;19;900;-54
2022/08/16 00:01:23;;;;;;;;;;;;;;;21.27;100.00;99222.75;3057894;19;1429;-52
2022/08/16 00:02:32;;;;;;;;;;;;;;;21.23;100.00;99221.47;3059451;19;1333;-57
2022/08/16 00:03:34;;;;;;;;;;;;;;;21.20;100.00;99218.13;3060088;19;970;-49
2022/08/16 00:04:41;;;;;;;;;;;;;;;21.18;100.00;99217.47;3059592;19;865;-55
2022/08/16 00:05:43;;;;;;;;;;;;;;;21.15;100.00;99220.53;3059897;19;955;-55
2022/08/16 00:06:51;;;;;;;;;;;;;;;21.13;100.00;99211.72;3059395;19;971;-57
2022/08/16 00:07:55;;;;;;;;;;;;;;;21.11;100.00;99211.13;3059821;19;872;-51
2022/08/16 00:09:00;;;;;;;;;;;;;;;21.10;100.00;99204.00;3059378;19;999;-52
2022/08/16 00:10:03;;;;;;;;;;;;;;;21.10;100.00;99205.88;3059597;19;1204;-57
2022/08/16 00:11:09;;;;;;;;;;;;;;;21.07;100.00;99204.38;3059615;19;931;-53
2022/08/16 00:12:19;;;;;;;;;;;;;;;21.06;100.00;99204.56;3058656;19;980;-57
2022/08/16 00:13:21;;;;;;;;;;;;;;;21.06;100.00;99200.00;3058301;19;953;-55
2022/08/16 00:14:28;;;;;;;;;;;;;;;21.04;100.00;99195.78;3058485;19;1853;-55
2022/08/16 00:15:41;;;;;;;;;;;;;;;21.03;100.00;99196.81;3058759;19;932;-58
2022/08/16 00:16:55;;;;;;;;;;;;;;;21.03;100.00;99194.94;3059433;19;881;-60
2022/08/16 00:18:17;;;;;;;;;;;;;;;21.04;100.00;99180.34;3059948;19;869;-54
2022/08/16 00:19:26;;;;;;;;;;;;;;;21.05;100.00;99176.59;3059140;19;825;-61
2022/08/16 00:20:29;;;;;;;;;;;;;;;21.06;100.00;99172.88;3059759;19;920;-54
2022/08/16 00:21:33;;;;;;;;;;;;;;;21.07;100.00;99174.53;3059448;19;1673;-47
2022/08/16 00:22:39;;;;;;;;;;;;;;;21.07;100.00;99160.97;3059738;19;876;-53
2022/08/16 00:23:43;;;;;;;;;;;;;;;21.10;100.00;99165.19;3059103;19;1047;-60
2022/08/16 00:24:49;;;;;;;;;;;;;;;21.11;100.00;99159.56;3059723;19;872;-48
2022/08/16 00:25:52;;;;;;;;;;;;;;;21.12;100.00;99161.25;3059350;19;890;-54
2022/08/16 00:27:16;;;;;;;;;;;;;;;21.12;100.00;99161.25;3059653;19;947;-58
2022/08/16 00:28:19;;;;;;;;;;;;;;;21.13;100.00;99157.47;3059284;19;900;-51
2022/08/16 00:29:23;;;;;;;;;;;;;;;21.13;100.00;99157.47;3058927;19;949;-55
2022/08/16 00:30:25;;;;;;;;;;;;;;;21.15;100.00;99151.84;3058934;19;1066;-53
2022/08/16 00:31:33;;;;;;;;;;;;;;;21.14;100.00;99153.72;3058647;19;865;-48
2022/08/16 00:32:58;;;;;;;;;;;;;;;21.13;100.00;99146.63;3059552;19;913;-53
2022/08/16 00:34:00;;;;;;;;;;;;;;;21.12;100.00;99154.97;3058490;19;864;-53
2022/08/16 00:35:11;;;;;;;;;;;;;;;21.10;100.00;99147.03;3057984;19;1858;-64
2022/08/16 00:36:16;;;;;;;;;;;;;;;21.10;100.00;99141.63;3059390;19;881;-57
2022/08/16 00:37:21;;;;;;;;;;;;;;;21.07;100.00;99142.00;3058240;19;1654;-61
2022/08/16 00:38:25;;;;;;;;;;;;;;;21.06;100.00;99150.31;3058283;19;980;-58
2022/08/16 00:39:47;;;;;;;;;;;;;;;20.95;100.00;99131.84;3059261;19;860;-53
2022/08/16 00:41:01;;;;;;;;;;;;;;;21.01;100.00;99153.59;3058653;19;1291;-54
2022/08/16 00:42:06;;;;;;;;;;;;;;;21.01;100.00;99153.59;3058291;19;913;-59
2022/08/16 00:43:17;;;;;;;;;;;;;;;20.99;100.00;99154.84;3058580;19;888;-59
2022/08/16 00:44:20;;;;;;;;;;;;;;;20.98;100.00;99155.88;3058317;19;934;-54
2022/08/16 00:45:36;;;;;;;;;;;;;;;20.96;100.00;99145.22;3058413;19;865;-55
2022/08/16 00:47:04;;;;;;;;;;;;;;;20.95;100.00;99146.25;3058399;19;929;-56
2022/08/16 00:48:08;;;;;;;;;;;;;;;20.94;100.00;99149.16;3058432;19;952;-54
2022/08/16 00:49:32;;;;;;;;;;;;;;;20.91;100.00;99147.66;3058745;19;991;-53
2022/08/16 00:50:45;;;;;;;;;;;;;;;20.90;100.00;99151.41;3058300;19;955;-60
2022/08/16 00:51:50;;;;;;;;;;;;;;;20.87;100.00;99146.41;3058170;19;1653;-55
2022/08/16 00:52:57;;;;;;;;;;;;;;;20.86;100.00;99144.72;3059170;19;881;-49
2022/08/16 00:54:02;;;;;;;;;;;;;;;20.84;100.00;99146.78;3058164;19;860;-54
2022/08/16 00:55:05;;;;;;;;;;;;;;;20.83;100.00;99145.94;3057401;19;1846;-54
2022/08/16 00:56:13;;;;;;;;;;;;;;;20.82;100.00;99143.41;3059208;19;1236;-54
2022/08/16 00:57:35;;;;;;;;;;;;;;;20.81;100.00;99139.00;3058678;19;920;-52
2022/08/16 00:58:59;;;;;;;;;;;;;;;20.79;100.00;99135.66;3057961;19;1004;-61
2022/08/16 01:00:04;;;;;;;;;;;;;;;20.79;100.00;99133.78;3058328;19;947;-58
2022/08/16 01:01:09;;;;;;;;;;;;;;;20.78;100.00;99136.69;3057938;19;1495;-53
2022/08/16 01:02:12;;;;;;;;;;;;;;;20.76;100.00;99139.63;3058496;19;1093;-56
2022/08/16 01:03:35;;;;;;;;;;;;;;;20.76;100.00;99139.63;3059735;19;1828;-58
2022/08/16 01:04:37;;;;;;;;;;;;;;;20.76;100.00;99138.78;3059295;19;928;-54
2022/08/16 01:05:42;;;;;;;;;;;;;;;20.74;100.00;99132.69;3058849;19;1024;-57
2022/08/16 01:06:44;;;;;;;;;;;;;;;20.72;100.00;99132.03;3059047;19;870;-52
2022/08/16 01:07:53;;;;;;;;;;;;;;;20.71;100.00;99130.38;3059049;19;868;-60
2022/08/16 01:08:55;;;;;;;;;;;;;;;20.68;100.00;99133.44;3058029;19;903;-58
2022/08/16 01:10:03;;;;;;;;;;;;;;;20.67;100.00;99129.91;3058075;19;853;-54
2022/08/16 01:11:17;;;;;;;;;;;;;;;20.66;100.00;99124.66;3057625;19;943;-53
2022/08/16 01:12:23;;;;;;;;;;;;;;;20.65;100.00;99126.53;3058219;19;927;-58
2022/08/16 01:13:27;;;;;;;;;;;;;;;20.65;100.00;99128.44;3057758;19;932;-56
2022/08/16 01:14:33;;;;;;;;;;;;;;;20.62;100.00;99126.94;3057456;19;958;-60
2022/08/16 01:15:36;;;;;;;;;;;;;;;20.64;100.00;99129.47;3057261;19;1846;-53
2022/08/16 01:16:47;;;;;;;;;;;;;;;20.60;100.00;99123.59;3058190;19;959;-53
2022/08/16 01:17:49;;;;;;;;;;;;;;;20.60;100.00;99122.75;3057603;19;986;-62
2022/08/16 01:19:25;;;;;;;;;;;;;;;20.58;100.00;99125.63;3057993;19;888;-57
2022/08/16 01:20:31;;;;;;;;;;;;;;;20.55;100.00;99130.59;3057562;19;1458;-63
2022/08/16 01:21:37;;;;;;;;;;;;;;;20.53;100.00;99128.06;3057674;19;967;-54
2022/08/16 01:22:50;;;;;;;;;;;;;;;20.54;100.00;99123.50;3058184;19;932;-60
2022/08/16 01:24:04;;;;;;;;;;;;;;;20.52;100.00;99120.16;3057380;19;964;-59
2022/08/16 01:25:30;;;;;;;;;;;;;;;20.51;100.00;99118.47;3058027;19;988;-53
2022/08/16 01:26:35;;;;;;;;;;;;;;;20.52;100.00;99114.72;3057697;19;840;-53
2022/08/16 01:27:47;;;;;;;;;;;;;;;20.52;100.00;99117.44;3057731;19;980;-60
2022/08/16 01:28:49;;;;;;;;;;;;;;;20.51;100.00;99108.47;3057962;19;1014;-60
2022/08/16 01:30:03;;;;;;;;;;;;;;;20.48;100.00;99109.69;3057980;19;896;-58
2022/08/16 01:31:20;;;;;;;;;;;;;;;20.47;100.00;99105.28;3058969;19;955;-64
2022/08/16 01:32:34;;;;;;;;;;;;;;;20.45;100.00;99104.66;3057488;19;1249;-58
2022/08/16 01:33:38;;;;;;;;;;;;;;;20.45;100.00;99099.22;3058019;19;1021;-59
2022/08/16 01:34:48;;;;;;;;;;;;;;;20.45;100.00;99093.81;3057534;19;955;-61
2022/08/16 01:36:01;;;;;;;;;;;;;;;20.44;100.00;99097.53;3057153;19;1849;-60
2022/08/16 01:37:13;;;;;;;;;;;;;;;20.42;100.00;99088.75;3057896;19;940;-57
2022/08/16 01:38:25;;;;;;;;;;;;;;;20.41;100.00;99086.25;3057782;19;837;-51
2022/08/16 01:39:30;;;;;;;;;;;;;;;20.41;100.00;99089.78;3057535;19;983;-60
2022/08/16 01:40:38;;;;;;;;;;;;;;;20.41;100.00;99091.66;3056984;19;1090;-54
2022/08/16 01:41:42;;;;;;;;;;;;;;;20.39;100.00;99086.47;3057640;19;1051;-58
2022/08/16 01:42:47;;;;;;;;;;;;;;;20.39;100.00;99086.47;3057590;19;884;-54
2022/08/16 01:43:54;;;;;;;;;;;;;;;20.39;100.00;99085.63;3057884;19;817;-55
2022/08/16 01:45:05;;;;;;;;;;;;;;;20.38;100.00;99079.34;3057358;19;963;-53
2022/08/16 01:46:10;;;;;;;;;;;;;;;20.37;100.00;99085.81;3057574;19;925;-61
2022/08/16 01:47:36;;;;;;;;;;;;;;;20.37;100.00;99080.38;3057741;19;960;-58
2022/08/16 01:49:18;;;;;;;;;;;;;;;20.36;100.00;99078.72;3057536;19;945;-51
2022/08/16 01:50:21;;;;;;;;;;;;;;;20.35;100.00;99068.03;3057044;19;1284;-54
2022/08/16 01:51:46;;;;;;;;;;;;;;;20.37;100.00;99069.53;3057525;19;1023;-58
2022/08/16 01:52:54;;;;;;;;;;;;;;;20.37;100.00;99069.53;3057372;19;948;-53
2022/08/16 01:54:18;;;;;;;;;;;;;;;20.38;100.00;99062.25;3057398;19;1487;-55
2022/08/16 01:55:32;;;;;;;;;;;;;;;20.38;100.00;99059.53;3057220;19;963;-59
2022/08/16 01:56:43;;;;;;;;;;;;;;;20.30;100.00;99049.63;3057840;19;865;-55
2022/08/16 01:57:46;;;;;;;;;;;;;;;20.38;100.00;99054.97;3057198;19;1347;-58
2022/08/16 01:59:00;;;;;;;;;;;;;;;20.37;100.00;99052.44;3057464;19;900;-57
2022/08/16 02:00:05;;;;;;;;;;;;;;;20.35;100.00;99051.75;3057375;19;876;-59
2022/08/16 02:01:16;;;;;;;;;;;;;;;20.34;100.00;99053.63;3056797;19;1143;-61
2022/08/16 02:02:18;;;;;;;;;;;;;;;20.34;100.00;99055.50;3057598;19;952;-57
2022/08/16 02:03:31;;;;;;;;;;;;;;;20.33;100.00;99051.09;3057172;19;912;-54
2022/08/16 02:04:33;;;;;;;;;;;;;;;20.32;100.00;99050.28;3057749;19;876;-59
2022/08/16 02:05:59;;;;;;;;;;;;;;;20.33;100.00;99048.41;3056117;19;940;-57
2022/08/16 02:07:07;;;;;;;;;;;;;;;20.33;100.00;99041.13;3056894;19;1051;-61
2022/08/16 02:08:14;;;;;;;;;;;;;;;20.33;100.00;99041.13;3057179;19;1023;-62
2022/08/16 02:09:38;;;;;;;;;;;;;;;20.36;100.00;99043.47;3057155;19;888;-50
2022/08/16 02:10:40;;;;;;;;;;;;;;;20.36;100.00;99032.63;3058161;19;963;-55
2022/08/16 02:11:46;;;;;;;;;;;;;;;20.37;100.00;99028.91;3058155;19;1015;-57
2022/08/16 02:12:54;;;;;;;;;;;;;;;20.37;100.00;99031.63;3057388;19;1113;-57
2022/08/16 02:14:04;;;;;;;;;;;;;;;20.37;100.00;99033.47;3057292;19;947;-62
2022/08/16 02:15:20;;;;;;;;;;;;;;;20.36;100.00;99029.94;3057332;19;900;-57
2022/08/16 02:16:28;;;;;;;;;;;;;;;20.35;100.00;99028.25;3056301;19;1863;-58
2022/08/16 02:17:33;;;;;;;;;;;;;;;20.36;100.00;99026.38;3057250;19;951;-52
2022/08/16 02:18:38;;;;;;;;;;;;;;;20.37;100.00;99014.50;3057646;19;961;-58
2022/08/16 02:19:41;;;;;;;;;;;;;;;20.36;100.00;99018.25;3057342;19;818;-54
2022/08/16 02:21:04;;;;;;;;;;;;;;;20.37;100.00;99019.94;3057003;19;1330;-53
2022/08/16 02:22:08;;;;;;;;;;;;;;;20.35;100.00;99017.41;3056907;19;885;-57
2022/08/16 02:23:33;;;;;;;;;;;;;;;20.31;100.00;99021.50;3057517;19;869;-64
2022/08/16 02:24:36;;;;;;;;;;;;;;;20.28;100.00;99019.19;3056278;19;924;-55
2022/08/16 02:25:46;;;;;;;;;;;;;;;20.25;100.00;99030.41;3057361;19;876;-54
2022/08/16 02:26:55;;;;;;;;;;;;;;;20.24;100.00;99034.16;3057719;19;877;-63
2022/08/16 02:28:01;;;;;;;;;;;;;;;20.23;100.00;99037.03;3057070;19;1000;-62
2022/08/16 02:29:04;;;;;;;;;;;;;;;20.22;100.00;99028.06;3056856;19;935;-53
2022/08/16 02:30:17;;;;;;;;;;;;;;;20.21;100.00;99030.97;3057174;19;944;-60
2022/08/16 02:31:42;;;;;;;;;;;;;;;20.19;100.00;99028.44;3056973;19;984;-54
2022/08/16 02:33:07;;;;;;;;;;;;;;;20.18;100.00;99021.34;3055745;19;972;-59
2022/08/16 02:34:12;;;;;;;;;;;;;;;20.17;100.00;99019.66;3057157;19;1034;-61
2022/08/16 02:35:14;;;;;;;;;;;;;;;20.16;100.00;99028.03;3056864;19;991;-58
2022/08/16 02:36:19;;;;;;;;;;;;;;;20.14;100.00;99028.19;3056885;19;1858;-54
2022/08/16 02:37:42;;;;;;;;;;;;;;;20.12;100.00;99031.09;3056634;19;1096;-61
2022/08/16 02:38:56;;;;;;;;;;;;;;;20.09;100.00;99033.34;3056397;19;1169;-58
2022/08/16 02:39:58;;;;;;;;;;;;;;;20.06;100.00;99028.31;3056904;19;1089;-52
2022/08/16 02:41:03;;;;;;;;;;;;;;;20.04;100.00;99024.97;3056506;19;889;-62
2022/08/16 02:42:12;;;;;;;;;;;;;;;20.03;100.00;99031.41;3056895;19;972;-51
2022/08/16 02:43:22;;;;;;;;;;;;;;;20.02;100.00;99024.31;3056549;19;1079;-59
2022/08/16 02:44:30;;;;;;;;;;;;;;;19.99;100.00;99027.41;3056977;19;901;-58
2022/08/16 02:45:35;;;;;;;;;;;;;;;19.97;100.00;99024.88;3056647;19;1013;-53
2022/08/16 02:46:38;;;;;;;;;;;;;;;19.95;100.00;99031.50;3056898;19;1003;-57
2022/08/16 02:47:54;;;;;;;;;;;;;;;19.92;100.00;99034.63;3056783;19;1816;-58
2022/08/16 02:49:03;;;;;;;;;;;;;;;19.91;100.00;99033.78;3056801;19;936;-58
2022/08/16 02:50:10;;;;;;;;;;;;;;;19.90;100.00;99034.81;3057804;19;1511;-52
2022/08/16 02:51:33;;;;;;;;;;;;;;;19.90;100.00;99033.97;3057488;19;829;-52
2022/08/16 02:52:39;;;;;;;;;;;;;;;19.92;100.00;99031.91;3057563;19;947;-53
2022/08/16 02:53:48;;;;;;;;;;;;;;;19.92;100.00;99032.75;3056578;19;1023;-60
2022/08/16 02:54:50;;;;;;;;;;;;;;;19.94;100.00;99035.22;3056969;19;877;-55
2022/08/16 02:56:00;;;;;;;;;;;;;;;19.96;100.00;99035.88;3056778;19;942;-53
2022/08/16 02:57:03;;;;;;;;;;;;;;;19.94;100.00;99037.94;3056359;19;1869;-54
2022/08/16 02:58:07;;;;;;;;;;;;;;;19.93;100.00;99047.94;3056252;19;932;-50
2022/08/16 02:59:10;;;;;;;;;;;;;;;19.92;100.00;99043.56;3056906;19;881;-52
2022/08/16 03:00:18;;;;;;;;;;;;;;;19.89;100.00;99043.94;3056509;19;992;-53
2022/08/16 03:01:40;;;;;;;;;;;;;;;19.87;100.00;99042.44;3056291;19;1707;-55
2022/08/16 03:02:49;;;;;;;;;;;;;;;19.87;100.00;99050.56;3056601;19;1034;-57
2022/08/16 03:03:59;;;;;;;;;;;;;;;19.85;100.00;99049.91;3056533;19;821;-61
2022/08/16 03:05:24;;;;;;;;;;;;;;;19.83;100.00;99060.09;3057095;19;979;-51
2022/08/16 03:06:32;;;;;;;;;;;;;;;19.81;100.00;99045.91;3056418;19;1434;-58
2022/08/16 03:07:55;;;;;;;;;;;;;;;19.80;100.00;99044.25;3056277;19;1098;-55
2022/08/16 03:08:57;;;;;;;;;;;;;;;19.80;100.00;99046.94;3056777;19;885;-59
2022/08/16 03:10:07;;;;;;;;;;;;;;;19.78;100.00;99044.44;3056284;19;1085;-57
2022/08/16 03:11:12;;;;;;;;;;;;;;;19.76;100.00;99039.19;3056434;19;975;-56
2022/08/16 03:12:25;;;;;;;;;;;;;;;19.77;100.00;99040.03;3056469;19;1041;-60
2022/08/16 03:13:37;;;;;;;;;;;;;;;19.76;100.00;99036.50;3056697;19;1194;-56
2022/08/16 03:14:45;;;;;;;;;;;;;;;19.74;100.00;99041.25;3056524;19;1044;-56
2022/08/16 03:15:48;;;;;;;;;;;;;;;19.72;100.00;99043.31;3056530;19;996;-52
2022/08/16 03:16:54;;;;;;;;;;;;;;;19.72;100.00;99043.31;3055854;19;1866;-51
2022/08/16 03:18:06;;;;;;;;;;;;;;;19.67;100.00;99040.34;3058952;19;1054;-61
2022/08/16 03:19:22;;;;;;;;;;;;;;;19.67;100.00;99039.50;3059715;19;876;-58
2022/08/16 03:20:24;;;;;;;;;;;;;;;19.65;100.00;99045.09;3059667;19;858;-58
2022/08/16 03:21:37;;;;;;;;;;;;;;;19.62;100.00;99040.03;3059714;19;963;-58
2022/08/16 03:22:42;;;;;;;;;;;;;;;19.62;100.00;99048.16;3059421;19;939;-63
2022/08/16 03:23:50;;;;;;;;;;;;;;;19.61;100.00;99041.06;3059540;19;968;-60
2022/08/16 03:24:52;;;;;;;;;;;;;;;19.60;100.00;99033.97;3059237;19;984;-55
2022/08/16 03:25:57;;;;;;;;;;;;;;;19.61;100.00;99041.06;3059606;19;1536;-57
2022/08/16 03:27:00;;;;;;;;;;;;;;;19.62;100.00;99041.91;3059496;19;936;-61
2022/08/16 03:28:07;;;;;;;;;;;;;;;19.60;100.00;99039.38;3059653;19;975;-52
2022/08/16 03:29:10;;;;;;;;;;;;;;;19.58;100.00;99046.84;3059357;19;898;-57
2022/08/16 03:30:20;;;;;;;;;;;;;;;19.55;100.00;99044.53;3059528;19;893;-53
2022/08/16 03:31:28;;;;;;;;;;;;;;;19.56;100.00;99038.06;3059339;19;916;-53
2022/08/16 03:32:44;;;;;;;;;;;;;;;19.55;100.00;99036.44;3059743;19;1349;-53
2022/08/16 03:33:48;;;;;;;;;;;;;;;19.53;100.00;99043.88;3059530;19;832;-56
2022/08/16 03:34:56;;;;;;;;;;;;;;;19.52;100.00;99044.91;3059354;19;951;-59
2022/08/16 03:35:58;;;;;;;;;;;;;;;19.49;100.00;99042.56;3059502;19;923;-62
2022/08/16 03:37:26;;;;;;;;;;;;;;;19.48;100.00;99046.25;3058649;19;1847;-55
2022/08/16 03:38:29;;;;;;;;;;;;;;;19.48;100.00;99043.56;3059442;19;1149;-56
2022/08/16 03:39:40;;;;;;;;;;;;;;;19.47;100.00;99044.59;3059366;19;1792;-52
2022/08/16 03:40:44;;;;;;;;;;;;;;;19.47;100.00;99038.34;3059527;19;974;-57
2022/08/16 03:41:49;;;;;;;;;;;;;;;19.48;100.00;99040.00;3059307;19;937;-56
2022/08/16 03:43:04;;;;;;;;;;;;;;;19.48;100.00;99046.25;3059569;19;868;-58
2022/08/16 03:44:24;;;;;;;;;;;;;;;19.48;100.00;99046.25;3059120;19;933;-56
2022/08/16 03:45:46;;;;;;;;;;;;;;;19.48;100.00;99043.56;3059447;19;979;-52
2022/08/16 03:46:51;;;;;;;;;;;;;;;19.51;100.00;99045.09;3058921;19;1802;-51
2022/08/16 03:47:58;;;;;;;;;;;;;;;19.53;100.00;99045.75;3058911;19;980;-61
2022/08/16 03:49:03;;;;;;;;;;;;;;;19.55;100.00;99041.84;3059308;19;833;-55
2022/08/16 03:50:05;;;;;;;;;;;;;;;19.55;100.00;99049.13;3058837;19;1845;-56
2022/08/16 03:51:29;;;;;;;;;;;;;;;19.58;100.00;99046.84;3058806;19;960;-56
2022/08/16 03:52:36;;;;;;;;;;;;;;;19.63;100.00;99047.16;3059637;19;1752;-47
2022/08/16 03:53:47;;;;;;;;;;;;;;;19.65;100.00;99046.97;3059218;19;988;-55
2022/08/16 03:55:02;;;;;;;;;;;;;;;19.70;100.00;99048.06;3060560;19;1678;-58
2022/08/16 03:56:08;;;;;;;;;;;;;;;19.74;100.00;99037.72;3059273;19;952;-59
2022/08/16 03:57:25;;;;;;;;;;;;;;;19.79;100.00;99040.69;3058937;19;1846;-51
2022/08/16 03:58:37;;;;;;;;;;;;;;;19.85;100.00;99041.78;3058790;19;968;-60
2022/08/16 03:59:42;;;;;;;;;;;;;;;19.89;100.00;99037.69;3059149;19;864;-61
2022/08/16 04:00:48;;;;;;;;;;;;;;;19.94;100.00;99036.06;3059336;19;1300;-56
2022/08/16 04:02:02;;;;;;;;;;;;;;;20.02;100.00;99037.84;3058829;19;1055;-56
2022/08/16 04:03:19;;;;;;;;;;;;;;;20.09;100.00;99044.19;3058925;19;1403;-55
2022/08/16 04:04:25;;;;;;;;;;;;;;;20.14;100.00;99037.16;3059063;19;917;-61
2022/08/16 04:05:37;;;;;;;;;;;;;;;20.22;100.00;99036.19;3059479;19;1094;-61
2022/08/16 04:06:42;;;;;;;;;;;;;;;20.29;100.00;99037.09;3058488;19;1367;-57
2022/08/16 04:07:44;;;;;;;;;;;;;;;20.34;100.00;99040.09;3058846;19;1004;-58
2022/08/16 04:08:49;;;;;;;;;;;;;;;20.40;100.00;99036.66;3058702;19;992;-63
2022/08/16 04:09:51;;;;;;;;;;;;;;;20.47;100.00;99037.53;3058855;19;1035;-64
2022/08/16 04:10:57;;;;;;;;;;;;;;;20.54;100.00;99039.47;3058529;19;1936;-59
2022/08/16 04:12:01;;;;;;;;;;;;;;;20.61;100.00;99043.94;3058740;19;1012;-56
2022/08/16 04:13:06;;;;;;;;;;;;;;;20.68;100.00;99054.84;3058799;19;1009;-50
2022/08/16 04:14:31;;;;;;;;;;;;;;;20.72;100.00;99056.13;3058433;19;1031;-56
2022/08/16 04:15:37;;;;;;;;;;;;;;;20.77;100.00;99064.53;3059748;19;1546;-55
2022/08/16 04:16:53;;;;;;;;;;;;;;;20.82;100.00;99070.19;3058732;19;1071;-56
2022/08/16 04:18:05;;;;;;;;;;;;;;;20.87;100.00;99075.88;3058111;19;1860;-56
2022/08/16 04:19:10;;;;;;;;;;;;;;;20.91;100.00;99079.88;3059993;19;976;-56
2022/08/16 04:20:13;;;;;;;;;;;;;;;20.97;100.00;99089.94;3058271;19;1844;-62
2022/08/16 04:21:36;;;;;;;;;;;;;;;21.02;100.00;99092.91;3057859;19;916;-47
2022/08/16 04:22:49;;;;;;;;;;;;;;;21.09;100.00;99101.94;3057953;19;880;-56
2022/08/16 04:23:53;;;;;;;;;;;;;;;21.14;100.00;99099.47;3058378;19;916;-58
2022/08/16 04:24:56;;;;;;;;;;;;;;;21.20;100.00;99106.88;3057813;19;1011;-60
2022/08/16 04:26:07;;;;;;;;;;;;;;;21.24;100.00;99111.91;3058376;19;968;-56
2022/08/16 04:27:18;;;;;;;;;;;;;;;21.28;100.00;99121.31;3057980;19;889;-58
2022/08/16 04:28:23;;;;;;;;;;;;;;;21.35;100.00;99130.38;3058227;19;951;-57
2022/08/16 04:29:46;;;;;;;;;;;;;;;21.42;100.00;99128.53;3056806;19;936;-50
2022/08/16 04:30:55;;;;;;;;;;;;;;;21.49;100.00;99135.69;3058127;19;980;-54
2022/08/16 04:31:57;;;;;;;;;;;;;;;21.58;100.00;99146.41;3058047;19;957;-53
2022/08/16 04:33:08;;;;;;;;;;;;;;;21.71;100.00;99151.94;3058250;19;951;-56
2022/08/16 04:34:13;;;;;;;;;;;;;;;21.83;100.00;99161.22;3057944;19;944;-62
2022/08/16 04:35:20;;;;;;;;;;;;;;;22.09;100.00;99174.16;3057956;19;940;-60
2022/08/16 04:36:24;;;;;;;;;;;;;;;22.46;100.00;99192.72;3058562;19;1002;-60
2022/08/16 04:37:29;;;;;;;;;;;;;;;22.79;100.00;99205.66;3058275;19;1016;-62
2022/08/16 04:38:51;;;;;;;;;;;;;;;23.03;100.00;99229.59;3058539;19;988;-57
2022/08/16 04:39:53;;;;;;;;;;;;;;;22.98;100.00;99257.41;3058455;19;966;-54
2022/08/16 04:41:01;;;;;;;;;;;;;;;22.91;100.00;99270.16;3058824;19;817;-56
2022/08/16 04:42:04;;;;;;;;;;;;;;;22.89;100.00;99285.00;3058091;19;983;-50
2022/08/16 04:43:15;;;;;;;;;;;;;;;22.91;100.00;99304.69;3057969;19;1023;-52
2022/08/16 04:44:18;;;;;;;;;;;;;;;23.11;100.00;99311.03;3058185;19;1007;-51
2022/08/16 04:45:44;;;;;;;;;;;;;;;23.33;100.00;99331.63;3059062;19;1192;-52
2022/08/16 04:46:49;;;;;;;;;;;;;;;23.35;100.00;99345.88;3058289;19;1055;-51
2022/08/16 04:48:06;;;;;;;;;;;;;;;23.07;100.00;99358.75;3058144;19;964;-52
2022/08/16 04:49:18;;;;;;;;;;;;;;;22.87;100.00;99347.78;3058323;19;972;-53
2022/08/16 04:50:26;;;;;;;;;;;;;;;22.78;100.00;99359.03;3058052;19;1059;-58
2022/08/16 04:51:43;;;;;;;;;;;;;;;22.66;100.00;99355.16;3058279;19;1054;-51
2022/08/16 04:52:57;;;;;;;;;;;;;;;22.57;100.00;99343.59;3058341;19;1122;-56
2022/08/16 04:54:02;;;;;;;;;;;;;;;22.53;100.00;99345.88;3058330;19;900;-63
2022/08/16 04:55:14;;;;;;;;;;;;;;;22.51;100.00;99337.06;3058304;19;987;-56
2022/08/16 04:56:18;;;;;;;;;;;;;;;22.46;100.00;99344.97;3058170;19;925;-57
2022/08/16 04:57:23;;;;;;;;;;;;;;;22.42;100.00;99335.53;3058346;19;1255;-52
2022/08/16 04:58:33;;;;;;;;;;;;;;;22.41;100.00;99333.88;3057758;19;1853;-58
2022/08/16 04:59:45;;;;;;;;;;;;;;;22.38;100.00;99336.97;3059073;19;900;-58
2022/08/16 05:00:51;;;;;;;;;;;;;;;22.40;100.00;99334.06;3058836;19;2407;-59
2022/08/16 05:01:55;;;;;;;;;;;;;;;22.39;100.00;99327.78;3058311;19;889;-54
2022/08/16 05:03:10;;;;;;;;;;;;;;;22.41;100.00;99328.44;3057950;19;873;-57
2022/08/16 05:04:18;;;;;;;;;;;;;;;22.42;100.00;99327.38;3058054;19;999;-59
2022/08/16 05:05:25;;;;;;;;;;;;;;;22.46;100.00;99322.41;3058319;19;879;-54
2022/08/16 05:06:37;;;;;;;;;;;;;;;22.48;100.00;99318.44;3057927;19;902;-55
2022/08/16 05:07:51;;;;;;;;;;;;;;;22.52;100.00;99322.44;3058038;19;1309;-58
2022/08/16 05:09:04;;;;;;;;;;;;;;;22.55;100.00;99316.59;3057926;19;964;-58
2022/08/16 05:10:07;;;;;;;;;;;;;;;22.61;100.00;99320.38;3058108;19;987;-62
2022/08/16 05:11:27;;;;;;;;;;;;;;;22.66;100.00;99323.34;3057816;19;1015;-61
2022/08/16 05:12:33;;;;;;;;;;;;;;;22.73;100.00;99317.94;3058150;19;889;-55
2022/08/16 05:13:39;;;;;;;;;;;;;;;22.80;100.00;99324.31;3057672;19;1307;-62
2022/08/16 05:14:46;;;;;;;;;;;;;;;22.85;100.00;99319.09;3057759;19;1007;-61
2022/08/16 05:16:08;;;;;;;;;;;;;;;22.92;100.00;99328.97;3057412;19;1312;-60
2022/08/16 05:17:12;;;;;;;;;;;;;;;23.01;100.00;99329.63;3058542;19;1476;-62
2022/08/16 05:18:17;;;;;;;;;;;;;;;23.07;100.00;99331.53;3059244;19;1725;-50
2022/08/16 05:19:32;;;;;;;;;;;;;;;23.11;100.00;99338.25;3057400;19;2075;-55
2022/08/16 05:20:47;;;;;;;;;;;;;;;23.19;100.00;99346.22;3058746;19;1245;-55
2022/08/16 05:22:11;;;;;;;;;;;;;;;23.24;100.00;99357.38;3057938;19;912;-55
2022/08/16 05:23:20;;;;;;;;;;;;;;;23.26;100.00;99368.91;3057526;19;884;-55
2022/08/16 05:24:27;;;;;;;;;;;;;;;23.31;100.00;99374.53;3058867;19;1362;-54
2022/08/16 05:25:30;;;;;;;;;;;;;;;23.35;100.00;99373.09;3059216;19;1367;-57
2022/08/16 05:26:44;;;;;;;;;;;;;;;23.41;100.00;99371.47;3059215;19;1725;-52
2022/08/16 05:27:54;;;;;;;;;;;;;;;23.50;100.00;99374.84;3057396;19;1631;-53
2022/08/16 05:29:00;;;;;;;;;;;;;;;23.57;100.00;99375.72;3058007;19;987;-55
2022/08/16 05:30:05;;;;;;;;;;;;;;;23.68;100.00;99388.72;3057656;19;1099;-53
2022/08/16 05:31:30;;;;;;;;;;;;;;;23.79;100.00;99401.75;3057584;19;984;-51
2022/08/16 05:32:33;;;;;;;;;;;;;;;23.89;100.00;99398.66;3057623;19;861;-57
2022/08/16 05:33:41;;;;;;;;;;;;;;;23.99;100.00;99399.94;3057553;19;1055;-52
2022/08/16 05:34:44;;;;;;;;;;;;;;;24.08;100.00;99416.91;3057862;19;972;-53
2022/08/16 05:35:49;;;;;;;;;;;;;;;24.15;100.00;99412.31;3057661;19;855;-56
2022/08/16 05:37:14;;;;;;;;;;;;;;;24.27;100.00;99427.03;3057611;19;975;-57
2022/08/16 05:38:26;;;;;;;;;;;;;;;24.30;100.00;99440.25;3057498;19;968;-53
2022/08/16 05:39:37;;;;;;;;;;;;;;;24.33;100.00;99444.44;3057782;19;1018;-50
2022/08/16 05:40:44;;;;;;;;;;;;;;;24.40;100.00;99448.84;3056148;19;948;-54
2022/08/16 05:42:03;;;;;;;;;;;;;;;24.53;100.00;99452.63;3057046;19;947;-55
2022/08/16 05:43:05;;;;;;;;;;;;;;;24.61;100.00;99460.63;3058068;19;864;-56
2022/08/16 05:44:16;;;;;;;;;;;;;;;24.70;100.00;99460.19;3057443;19;896;-56
2022/08/16 05:45:25;;;;;;;;;;;;;;;24.77;100.00;99466.47;3057347;19;1370;-58
2022/08/16 05:46:33;;;;;;;;;;;;;;;24.84;100.00;99471.09;3057228;19;928;-58
2022/08/16 05:47:48;;;;;;;;;;;;;;;24.91;100.00;99477.38;3057735;19;964;-58
2022/08/16 05:49:15;;;;;;;;;;;;;;;24.96;100.00;99489.41;3057359;19;1095;-55
2022/08/16 05:50:30;;;;;;;;;;;;;;;25.02;100.00;99484.97;3056309;19;1027;-52
2022/08/16 05:51:36;;;;;;;;;;;;;;;25.06;100.00;99492.53;3057647;19;956;-56
2022/08/16 05:52:43;;;;;;;;;;;;;;;25.13;100.00;99493.34;3056616;19;1392;-52
2022/08/16 05:53:46;;;;;;;;;;;;;;;25.20;100.00;99482.44;3056662;19;1714;-55
2022/08/16 05:54:52;;;;;;;;;;;;;;;25.25;100.00;99479.88;3057285;19;1131;-54
2022/08/16 05:56:02;;;;;;;;;;;;;;;25.31;100.00;99484.50;3056981;19;2551;-51
2022/08/16 05:57:07;;;;;;;;;;;;;;;25.37;100.00;99491.81;3055878;19;1756;-53
2022/08/16 05:58:14;;;;;;;;;;;;;;;25.38;100.00;99507.16;3057018;19;1757;-50
2022/08/16 05:59:36;;;;;;;;;;;;;;;25.43;100.00;99522.91;3055554;19;1851;-59
2022/08/16 06:00:38;;;;;;;;;;;;;;;25.44;100.00;99539.09;3057097;19;1424;-54
2022/08/16 06:01:43;;;;;;;;;;;;;;;25.46;100.00;99547.94;3056595;19;876;-57
2022/08/16 06:02:49;;;;;;;;;;;;;;;25.48;100.00;99556.72;3057923;19;1606;-54
2022/08/16 06:04:16;;;;;;;;;;;;;;;25.52;100.00;99562.59;3057788;19;1504;-53
2022/08/16 06:05:40;;;;;;;;;;;;;;;25.57;100.00;99565.56;3057021;19;1062;-54